createdAt,value
2022-09-30T00:00:49.174Z,5.93
2022-09-30T00:01:49.291Z,5.96
2022-09-30T00:02:49.272Z,5.95
2022-09-30T00:03:49.191Z,6.01
2022-09-30T00:04:49.203Z,5.97
2022-09-30T00:05:49.194Z,5.93
2022-09-30T00:06:49.197Z,6.01
2022-09-30T00:07:49.271Z,6.01
2022-09-30T00:08:49.184Z,6.02
2022-09-30T00:09:49.207Z,6.01
2022-09-30T00:10:49.199Z,6
2022-09-30T00:11:49.184Z,5.94
2022-09-30T00:12:49.196Z,6.06
2022-09-30T00:13:49.281Z,6.06
2022-09-30T00:14:49.212Z,6.09
2022-09-30T00:15:49.279Z,5.99
2022-09-30T00:16:49.202Z,5.94
2022-09-30T00:17:49.198Z,6.02
2022-09-30T00:18:49.198Z,6.04
2022-09-30T00:19:49.204Z,6.04
2022-09-30T00:20:49.189Z,5.91
2022-09-30T00:21:49.204Z,5.95
2022-09-30T00:22:49.200Z,5.98
2022-09-30T00:23:49.204Z,5.97
2022-09-30T00:24:49.212Z,5.97
2022-09-30T00:25:49.192Z,6
2022-09-30T00:26:49.204Z,5.99
2022-09-30T00:27:49.195Z,6.06
2022-09-30T00:28:49.212Z,6.1
2022-09-30T00:29:49.196Z,6.1
2022-09-30T00:30:49.176Z,6.09
2022-09-30T00:31:49.215Z,6.1
2022-09-30T00:32:49.179Z,6.21
2022-09-30T00:33:49.176Z,6.17
2022-09-30T00:34:49.198Z,6.23
2022-09-30T00:35:49.181Z,6.33
2022-09-30T00:36:49.178Z,6.36
2022-09-30T00:37:49.174Z,6.35
2022-09-30T00:38:49.189Z,6.2
2022-09-30T00:39:49.208Z,6.2
2022-09-30T00:40:49.178Z,6.37
2022-09-30T00:41:49.172Z,6.21
2022-09-30T00:42:49.178Z,6.29
2022-09-30T00:43:49.208Z,6.23
2022-09-30T00:44:49.289Z,6.36
2022-09-30T00:45:49.191Z,6.4
2022-09-30T00:46:49.271Z,6.5
2022-09-30T00:47:49.194Z,6.47
2022-09-30T00:48:49.186Z,6.58
2022-09-30T00:49:49.209Z,6.52
2022-09-30T00:50:49.193Z,6.41
2022-09-30T00:51:49.203Z,6.6
2022-09-30T00:52:49.200Z,6.64
2022-09-30T00:53:49.186Z,6.48
2022-09-30T00:54:49.208Z,6.59
2022-09-30T00:55:49.197Z,6.6
2022-09-30T00:56:49.209Z,6.6
2022-09-30T00:57:49.206Z,6.63
2022-09-30T00:58:49.207Z,6.58
2022-09-30T00:59:49.204Z,6.58
2022-09-30T01:00:49.217Z,6.58
2022-09-30T01:01:49.267Z,6.56
2022-09-30T01:02:49.193Z,6.43
2022-09-30T01:03:49.212Z,6.35
2022-09-30T01:04:49.203Z,6.35
2022-09-30T01:05:49.198Z,6.09
2022-09-30T01:06:49.195Z,6.01
2022-09-30T01:07:49.291Z,5.76
2022-09-30T01:08:49.197Z,5.96
2022-09-30T01:09:49.263Z,5.85
2022-09-30T01:10:49.207Z,5.97
2022-09-30T01:11:49.204Z,6.29
2022-09-30T01:12:49.188Z,6.24
2022-09-30T01:13:49.220Z,6.24
2022-09-30T01:14:49.208Z,5.88
2022-09-30T01:15:49.218Z,5.87
2022-09-30T01:16:49.191Z,5.84
2022-09-30T01:17:49.190Z,7.93
2022-09-30T01:18:49.194Z,6.11
2022-09-30T01:19:49.206Z,6.16
2022-09-30T01:20:49.205Z,5.88
2022-09-30T01:21:49.191Z,5.95
2022-09-30T01:22:49.190Z,6.13
2022-09-30T01:23:49.201Z,6.04
2022-09-30T01:24:49.217Z,6.16
2022-09-30T01:25:49.192Z,6.25
2022-09-30T01:26:49.193Z,6.23
2022-09-30T01:27:49.193Z,6.24
2022-09-30T01:28:49.208Z,6.22
2022-09-30T01:29:49.209Z,6.23
2022-09-30T01:30:49.173Z,6.23
2022-09-30T01:31:49.306Z,6.08
2022-09-30T01:32:49.197Z,6.11
2022-09-30T01:33:49.197Z,6.17
2022-09-30T01:34:49.214Z,6.2
2022-09-30T01:35:49.194Z,6.2
2022-09-30T01:36:49.200Z,6.29
2022-09-30T01:37:49.189Z,6.38
2022-09-30T01:38:49.188Z,6.25
2022-09-30T01:39:49.194Z,6.25
2022-09-30T01:40:49.186Z,6.34
2022-09-30T01:41:49.177Z,6.3
2022-09-30T01:42:49.175Z,6.26
2022-09-30T01:43:49.363Z,6.27
2022-09-30T01:44:49.193Z,6.33
2022-09-30T01:45:49.184Z,6.42
2022-09-30T01:46:49.267Z,6.39
2022-09-30T01:47:49.172Z,6.52
2022-09-30T01:48:49.185Z,6.47
2022-09-30T01:49:49.192Z,6.53
2022-09-30T01:50:49.180Z,6.55
2022-09-30T01:51:49.178Z,6.45
2022-09-30T01:52:49.177Z,6.45
2022-09-30T01:53:49.184Z,6.37
2022-09-30T01:54:49.203Z,6.4
2022-09-30T01:55:49.201Z,6.48
2022-09-30T01:56:49.180Z,6.57
2022-09-30T01:57:49.193Z,6.5
2022-09-30T01:58:49.203Z,6.41
2022-09-30T01:59:49.204Z,6.45
2022-09-30T02:00:49.252Z,6.45
2022-09-30T02:01:49.269Z,6.64
2022-09-30T02:02:49.235Z,6.67
2022-09-30T02:03:49.191Z,6.66
2022-09-30T02:04:49.209Z,6.6
2022-09-30T02:05:49.195Z,6.52
2022-09-30T02:06:49.187Z,6.52
2022-09-30T02:07:49.195Z,6.49
2022-09-30T02:08:49.192Z,6.4
2022-09-30T02:09:49.397Z,6.5
2022-09-30T02:10:49.186Z,6.45
2022-09-30T02:11:49.201Z,6.43
2022-09-30T02:12:49.219Z,6.48
2022-09-30T02:13:49.205Z,6.51
2022-09-30T02:14:49.199Z,6.45
2022-09-30T02:15:49.231Z,6.4
2022-09-30T02:16:49.190Z,6.42
2022-09-30T02:17:49.194Z,6.43
2022-09-30T02:18:49.189Z,6.54
2022-09-30T02:19:49.207Z,6.57
2022-09-30T02:20:49.196Z,6.52
2022-09-30T02:21:49.205Z,6.55
2022-09-30T02:22:49.186Z,6.56
2022-09-30T02:23:49.190Z,6.58
2022-09-30T02:24:49.213Z,6.62
2022-09-30T02:25:49.195Z,6.53
2022-09-30T02:26:49.189Z,6.53
2022-09-30T02:27:49.199Z,6.66
2022-09-30T02:28:49.205Z,6.64
2022-09-30T02:29:49.204Z,6.52
2022-09-30T02:30:49.176Z,6.52
2022-09-30T02:31:49.258Z,6.59
2022-09-30T02:32:49.197Z,6.6
2022-09-30T02:33:49.201Z,6.6
2022-09-30T02:34:49.208Z,6.56
2022-09-30T02:35:49.191Z,6.52
2022-09-30T02:36:49.198Z,6.54
2022-09-30T02:37:49.192Z,6.5
2022-09-30T02:38:49.193Z,6.54
2022-09-30T02:39:49.201Z,6.47
2022-09-30T02:40:49.192Z,6.52
2022-09-30T02:41:49.193Z,6.6
2022-09-30T02:42:49.192Z,6.6
2022-09-30T02:43:49.356Z,6.59
2022-09-30T02:44:49.202Z,6.56
2022-09-30T02:45:49.197Z,6.59
2022-09-30T02:46:49.283Z,6.67
2022-09-30T02:47:49.181Z,6.71
2022-09-30T02:48:49.188Z,6.71
2022-09-30T02:49:49.189Z,6.57
2022-09-30T02:50:49.195Z,6.61
2022-09-30T02:51:49.172Z,6.71
2022-09-30T02:52:49.172Z,6.61
2022-09-30T02:53:49.183Z,6.68
2022-09-30T02:54:49.188Z,6.64
2022-09-30T02:55:49.178Z,6.55
2022-09-30T02:56:49.176Z,6.75
2022-09-30T02:57:49.174Z,6.85
2022-09-30T02:58:49.188Z,6.82
2022-09-30T02:59:49.197Z,6.78
2022-09-30T03:00:49.232Z,6.78
2022-09-30T03:01:49.276Z,6.74
2022-09-30T03:02:49.188Z,6.68
2022-09-30T03:03:49.176Z,6.64
2022-09-30T03:04:49.203Z,6.72
2022-09-30T03:05:49.201Z,6.67
2022-09-30T03:06:49.186Z,6.68
2022-09-30T03:07:49.187Z,6.61
2022-09-30T03:08:49.252Z,6.62
2022-09-30T03:09:49.258Z,6.72
2022-09-30T03:10:49.194Z,6.73
2022-09-30T03:11:49.189Z,6.74
2022-09-30T03:12:49.197Z,6.72
2022-09-30T03:13:49.212Z,6.7
2022-09-30T03:14:49.203Z,6.77
2022-09-30T03:15:49.196Z,6.83
2022-09-30T03:16:49.198Z,6.81
2022-09-30T03:17:49.201Z,6.71
2022-09-30T03:18:49.198Z,6.58
2022-09-30T03:19:49.203Z,6.7
2022-09-30T03:20:49.189Z,6.71
2022-09-30T03:21:49.197Z,6.7
2022-09-30T03:22:49.197Z,6.62
2022-09-30T03:23:49.200Z,6.62
2022-09-30T03:24:49.213Z,6.74
2022-09-30T03:25:49.193Z,6.68
2022-09-30T03:26:49.189Z,6.73
2022-09-30T03:27:49.191Z,6.61
2022-09-30T03:28:49.213Z,6.69
2022-09-30T03:29:49.205Z,6.72
2022-09-30T03:30:49.178Z,6.72
2022-09-30T03:31:49.253Z,6.62
2022-09-30T03:32:49.193Z,6.66
2022-09-30T03:33:49.190Z,6.7
2022-09-30T03:34:49.206Z,6.64
2022-09-30T03:35:49.197Z,6.74
2022-09-30T03:36:49.201Z,6.62
2022-09-30T03:37:49.186Z,6.59
2022-09-30T03:38:49.191Z,6.55
2022-09-30T03:39:49.203Z,6.56
2022-09-30T03:40:49.210Z,6.56
2022-09-30T03:41:49.189Z,6.58
2022-09-30T03:42:49.183Z,6.52
2022-09-30T03:43:49.262Z,6.48
2022-09-30T03:44:49.210Z,6.6
2022-09-30T03:45:49.181Z,6.63
2022-09-30T03:46:49.272Z,6.68
2022-09-30T03:47:49.199Z,6.64
2022-09-30T03:48:49.191Z,6.6
2022-09-30T03:49:49.202Z,6.63
2022-09-30T03:50:49.190Z,6.68
2022-09-30T03:51:51.076Z,6.65
2022-09-30T03:52:49.188Z,6.65
2022-09-30T03:53:49.188Z,6.6
2022-09-30T03:54:49.206Z,6.64
2022-09-30T03:55:49.194Z,6.62
2022-09-30T03:56:49.187Z,6.62
2022-09-30T03:57:49.192Z,6.6
2022-09-30T03:58:49.189Z,6.68
2022-09-30T03:59:49.204Z,6.71
2022-09-30T04:00:49.252Z,6.67
2022-09-30T04:01:49.339Z,6.68
2022-09-30T04:02:49.179Z,6.61
2022-09-30T04:03:49.177Z,6.66
2022-09-30T04:04:49.187Z,6.6
2022-09-30T04:05:49.181Z,6.6
2022-09-30T04:06:49.175Z,6.71
2022-09-30T04:07:49.171Z,6.65
2022-09-30T04:08:49.181Z,6.74
2022-09-30T04:09:49.222Z,6.69
2022-09-30T04:10:49.183Z,6.75
2022-09-30T04:11:49.173Z,6.74
2022-09-30T04:12:49.176Z,6.71
2022-09-30T04:13:49.200Z,6.66
2022-09-30T04:14:49.194Z,6.66
2022-09-30T04:15:49.173Z,6.59
2022-09-30T04:16:53.218Z,6.59
2022-09-30T04:17:49.182Z,6.72
2022-09-30T04:18:49.188Z,6.73
2022-09-30T04:19:49.204Z,6.72
2022-09-30T04:20:49.189Z,6.75
2022-09-30T04:21:49.185Z,6.78
2022-09-30T04:22:49.184Z,6.73
2022-09-30T04:23:49.189Z,6.72
2022-09-30T04:24:49.206Z,6.81
2022-09-30T04:25:49.193Z,6.73
2022-09-30T04:26:49.191Z,6.78
2022-09-30T04:27:49.192Z,6.72
2022-09-30T04:28:49.191Z,6.71
2022-09-30T04:29:49.210Z,6.71
2022-09-30T04:30:49.204Z,6.79
2022-09-30T04:31:49.251Z,6.8
2022-09-30T04:32:49.198Z,6.85
2022-09-30T04:33:49.195Z,6.8
2022-09-30T04:34:49.213Z,6.84
2022-09-30T04:35:49.191Z,6.84
2022-09-30T04:36:49.188Z,6.8
2022-09-30T04:37:49.180Z,6.81
2022-09-30T04:38:49.197Z,6.85
2022-09-30T04:39:49.200Z,6.69
2022-09-30T04:40:49.187Z,6.62
2022-09-30T04:41:49.182Z,6.66
2022-09-30T04:42:49.195Z,6.64
2022-09-30T04:43:49.204Z,6.68
2022-09-30T04:44:49.199Z,6.68
2022-09-30T04:45:49.261Z,6.63
2022-09-30T04:46:49.194Z,6.65
2022-09-30T04:47:49.196Z,6.62
2022-09-30T04:48:49.188Z,6.6
2022-09-30T04:49:49.215Z,6.57
2022-09-30T04:50:49.188Z,6.53
2022-09-30T04:51:49.189Z,6.47
2022-09-30T04:52:49.192Z,6.41
2022-09-30T04:53:49.196Z,6.33
2022-09-30T04:54:49.204Z,6.32
2022-09-30T04:55:49.190Z,6.43
2022-09-30T04:56:49.190Z,6.35
2022-09-30T04:57:49.189Z,6.4
2022-09-30T04:58:49.203Z,6.29
2022-09-30T04:59:49.225Z,6.4
2022-09-30T05:00:49.281Z,6.52
2022-09-30T05:01:49.285Z,8.5
2022-09-30T05:02:49.194Z,6.3
2022-09-30T05:03:49.194Z,6.45
2022-09-30T05:04:49.222Z,6.59
2022-09-30T05:05:49.194Z,6.59
2022-09-30T05:06:49.188Z,6.59
2022-09-30T05:07:49.218Z,6.59
2022-09-30T05:08:49.193Z,6.62
2022-09-30T05:09:49.205Z,6.6
2022-09-30T05:10:49.188Z,6.58
2022-09-30T05:11:49.195Z,6.58
2022-09-30T05:12:49.192Z,6.45
2022-09-30T05:13:49.217Z,6.56
2022-09-30T05:14:49.200Z,6.56
2022-09-30T05:15:49.208Z,6.55
2022-09-30T05:16:49.183Z,6.55
2022-09-30T05:17:49.176Z,6.52
2022-09-30T05:18:49.172Z,6.47
2022-09-30T05:19:49.207Z,6.55
2022-09-30T05:20:49.177Z,6.57
2022-09-30T05:21:49.173Z,6.55
2022-09-30T05:22:49.179Z,6.47
2022-09-30T05:23:49.208Z,6.55
2022-09-30T05:24:49.190Z,6.57
2022-09-30T05:25:49.172Z,6.53
2022-09-30T05:26:49.172Z,6.55
2022-09-30T05:27:49.176Z,6.58
2022-09-30T05:28:49.212Z,6.7
2022-09-30T05:29:49.188Z,6.63
2022-09-30T05:30:49.181Z,6.62
2022-09-30T05:31:49.232Z,6.7
2022-09-30T05:32:49.192Z,6.71
2022-09-30T05:33:49.195Z,6.77
2022-09-30T05:34:49.195Z,6.79
2022-09-30T05:35:49.200Z,6.81
2022-09-30T05:36:49.186Z,6.83
2022-09-30T05:37:49.188Z,6.82
2022-09-30T05:38:49.238Z,6.79
2022-09-30T05:39:49.210Z,6.77
2022-09-30T05:40:49.192Z,6.75
2022-09-30T05:41:49.190Z,6.72
2022-09-30T05:42:49.187Z,6.68
2022-09-30T05:43:49.207Z,6.66
2022-09-30T05:44:49.304Z,6.75
2022-09-30T05:45:49.185Z,6.67
2022-09-30T05:46:49.239Z,6.63
2022-09-30T05:47:49.192Z,6.75
2022-09-30T05:48:49.197Z,6.78
2022-09-30T05:49:51.144Z,6.75
2022-09-30T05:50:49.188Z,6.75
2022-09-30T05:51:49.186Z,6.77
2022-09-30T05:52:49.176Z,6.93
2022-09-30T05:53:49.194Z,6.97
2022-09-30T05:54:49.235Z,6.97
2022-09-30T05:55:49.191Z,6.9
2022-09-30T05:56:49.189Z,6.88
2022-09-30T05:57:49.192Z,6.84
2022-09-30T05:58:49.323Z,6.81
2022-09-30T05:59:49.207Z,6.88
2022-09-30T06:00:49.197Z,6.84
2022-09-30T06:01:49.301Z,6.85
2022-09-30T06:02:49.331Z,6.99
2022-09-30T06:03:49.185Z,6.89
2022-09-30T06:04:49.208Z,6.96
2022-09-30T06:05:49.191Z,6.91
2022-09-30T06:06:49.192Z,7.05
2022-09-30T06:07:49.722Z,7.15
2022-09-30T06:08:49.187Z,7.17
2022-09-30T06:09:49.305Z,7.06
2022-09-30T06:10:49.202Z,7.08
2022-09-30T06:11:49.200Z,6.99
2022-09-30T06:12:49.181Z,6.9
2022-09-30T06:13:49.211Z,7.07
2022-09-30T06:14:49.188Z,7.07
2022-09-30T06:15:49.206Z,7.12
2022-09-30T06:16:49.205Z,7.22
2022-09-30T06:17:49.195Z,7.24
2022-09-30T06:18:49.185Z,7.22
2022-09-30T06:19:49.205Z,7.29
2022-09-30T06:20:49.209Z,7.15
2022-09-30T06:21:49.191Z,7.25
2022-09-30T06:22:49.194Z,7.35
2022-09-30T06:23:49.181Z,7.35
2022-09-30T06:24:52.809Z,7.34
2022-09-30T06:25:49.183Z,7.35
2022-09-30T06:26:49.185Z,7.43
2022-09-30T06:27:49.176Z,7.51
2022-09-30T06:28:49.198Z,7.46
2022-09-30T06:29:49.190Z,7.48
2022-09-30T06:30:49.183Z,7.43
2022-09-30T06:31:49.202Z,7.51
2022-09-30T06:32:49.182Z,7.48
2022-09-30T06:33:49.178Z,7.59
2022-09-30T06:34:49.199Z,7.43
2022-09-30T06:35:49.178Z,7.6
2022-09-30T06:36:49.170Z,7.61
2022-09-30T06:37:49.186Z,7.62
2022-09-30T06:38:49.188Z,7.53
2022-09-30T06:39:49.205Z,7.49
2022-09-30T06:40:49.182Z,7.42
2022-09-30T06:41:49.186Z,7.59
2022-09-30T06:42:49.180Z,7.49
2022-09-30T06:43:49.285Z,7.54
2022-09-30T06:44:53.156Z,7.61
2022-09-30T06:45:49.245Z,7.66
2022-09-30T06:46:53.846Z,7.7
2022-09-30T06:47:59.088Z,7.73
2022-09-30T06:48:49.208Z,7.59
2022-09-30T06:49:50.152Z,7.71
2022-09-30T06:50:59.809Z,7.83
2022-09-30T06:51:49.203Z,7.85
2022-09-30T06:52:49.193Z,7.94
2022-09-30T06:53:53.207Z,7.91
2022-09-30T06:54:49.212Z,7.54
2022-09-30T06:55:49.196Z,7.46
2022-09-30T06:56:49.194Z,7.46
2022-09-30T06:57:49.183Z,7.75
2022-09-30T06:58:49.205Z,7.54
2022-09-30T06:59:49.211Z,7.6
2022-09-30T07:00:49.234Z,7.75
2022-09-30T07:01:49.246Z,7.87
2022-09-30T07:02:49.195Z,7.84
2022-09-30T07:03:53.961Z,7.84
2022-09-30T07:04:49.207Z,7.95
2022-09-30T07:05:49.195Z,7.7
2022-09-30T07:06:49.191Z,7.52
2022-09-30T07:07:49.211Z,7.6
2022-09-30T07:08:49.194Z,7.94
2022-09-30T07:09:49.260Z,7.78
2022-09-30T07:10:49.189Z,7.92
2022-09-30T07:11:49.196Z,7.79
2022-09-30T07:12:49.189Z,7.99
2022-09-30T07:13:49.284Z,8.25
2022-09-30T07:14:49.199Z,8.19
2022-09-30T07:15:49.186Z,8.19
2022-09-30T07:16:49.246Z,8.18
2022-09-30T07:17:49.191Z,8.08
2022-09-30T07:18:49.200Z,8.2
2022-09-30T07:19:49.198Z,8.3
2022-09-30T07:20:49.188Z,8.31
2022-09-30T07:21:49.188Z,8.32
2022-09-30T07:22:49.197Z,8.41
2022-09-30T07:23:49.264Z,8.49
2022-09-30T07:24:49.239Z,8.56
2022-09-30T07:25:49.183Z,8.62
2022-09-30T07:26:49.186Z,8.72
2022-09-30T07:27:49.188Z,8.76
2022-09-30T07:28:49.211Z,8.65
2022-09-30T07:30:49.221Z,8.7
2022-09-30T07:31:49.227Z,8.7
2022-09-30T07:32:49.309Z,8.75
2022-09-30T07:33:49.197Z,8.66
2022-09-30T07:34:49.202Z,8.55
2022-09-30T07:35:49.205Z,8.42
2022-09-30T07:36:49.194Z,8.54
2022-09-30T07:37:49.245Z,8.54
2022-09-30T07:38:49.176Z,8.66
2022-09-30T07:39:49.199Z,8.55
2022-09-30T07:40:49.172Z,8.63
2022-09-30T07:41:49.171Z,8.63
2022-09-30T07:42:49.180Z,8.66
2022-09-30T07:43:49.193Z,8.76
2022-09-30T07:44:49.192Z,8.76
2022-09-30T07:45:49.270Z,8.77
2022-09-30T07:46:49.185Z,8.84
2022-09-30T07:47:53.485Z,8.89
2022-09-30T07:48:49.177Z,9.09
2022-09-30T07:49:49.190Z,8.76
2022-09-30T07:50:49.192Z,8.76
2022-09-30T07:51:49.176Z,8.96
2022-09-30T07:52:49.176Z,9.03
2022-09-30T07:53:49.179Z,9.08
2022-09-30T07:54:50.683Z,9.25
2022-09-30T07:55:49.179Z,9.43
2022-09-30T07:57:09.113Z,9.23
2022-09-30T07:57:49.184Z,9.43
2022-09-30T07:58:49.198Z,9.48
2022-09-30T07:59:49.196Z,9.43
2022-09-30T08:00:49.261Z,9.45
2022-09-30T08:01:49.236Z,9.48
2022-09-30T08:02:49.198Z,9.49
2022-09-30T08:03:49.196Z,9.58
2022-09-30T08:04:49.219Z,9.64
2022-09-30T08:05:49.179Z,9.59
2022-09-30T08:06:49.191Z,9.62
2022-09-30T08:07:49.198Z,9.65
2022-09-30T08:08:49.199Z,9.64
2022-09-30T08:09:49.404Z,9.66
2022-09-30T08:10:49.199Z,9.51
2022-09-30T08:11:49.188Z,9.63
2022-09-30T08:12:49.190Z,9.69
2022-09-30T08:13:49.211Z,9.81
2022-09-30T08:14:49.204Z,9.87
2022-09-30T08:15:49.187Z,10.03
2022-09-30T08:16:49.252Z,10.12
2022-09-30T08:17:49.188Z,10.17
2022-09-30T08:18:49.204Z,10.17
2022-09-30T08:19:49.206Z,10.19
2022-09-30T08:20:49.206Z,10.12
2022-09-30T08:21:49.391Z,9.93
2022-09-30T08:22:49.205Z,9.84
2022-09-30T08:23:49.190Z,9.44
2022-09-30T08:24:49.210Z,8.94
2022-09-30T08:25:49.202Z,9.29
2022-09-30T08:26:49.264Z,9.4
2022-09-30T08:27:49.191Z,9.55
2022-09-30T08:28:49.202Z,9.92
2022-09-30T08:29:55.149Z,10.04
2022-09-30T08:30:49.192Z,10.11
2022-09-30T08:31:49.209Z,10.24
2022-09-30T08:32:49.191Z,10.25
2022-09-30T08:33:49.263Z,10.32
2022-09-30T08:34:49.207Z,10.32
2022-09-30T08:35:49.200Z,10.28
2022-09-30T08:36:49.202Z,10.02
2022-09-30T08:37:49.193Z,9.91
2022-09-30T08:38:49.189Z,9.86
2022-09-30T08:39:49.209Z,9.8
2022-09-30T08:40:49.208Z,9.79
2022-09-30T08:41:49.195Z,9.74
2022-09-30T08:42:52.907Z,9.37
2022-09-30T08:43:49.212Z,9.14
2022-09-30T08:44:49.206Z,9.51
2022-09-30T08:45:49.248Z,9.65
2022-09-30T08:46:49.206Z,9.31
2022-09-30T08:47:49.199Z,9.53
2022-09-30T08:48:49.195Z,9.61
2022-09-30T08:49:49.285Z,9.53
2022-09-30T08:50:49.183Z,9.53
2022-09-30T08:51:49.198Z,9.56
2022-09-30T08:52:49.579Z,9.56
2022-09-30T08:53:49.184Z,9.49
2022-09-30T08:54:49.187Z,9.55
2022-09-30T08:55:49.175Z,9.58
2022-09-30T08:56:49.178Z,9.64
2022-09-30T08:57:49.186Z,9.8
2022-09-30T08:58:49.195Z,9.85
2022-09-30T08:59:49.195Z,9.8
2022-09-30T09:00:49.224Z,9.71
2022-09-30T09:01:49.251Z,9.93
2022-09-30T09:02:49.270Z,9.83
2022-09-30T09:03:49.187Z,9.91
2022-09-30T09:04:49.200Z,9.63
2022-09-30T09:05:52.341Z,9.45
2022-09-30T09:06:49.179Z,9.52
2022-09-30T09:07:49.172Z,9.47
2022-09-30T09:08:49.181Z,9.32
2022-09-30T09:09:49.213Z,7.62
2022-09-30T09:10:49.204Z,8.08
2022-09-30T09:11:49.208Z,7.34
2022-09-30T09:12:49.203Z,7.73
2022-09-30T09:13:49.207Z,7.69
2022-09-30T09:14:49.201Z,7.88
2022-09-30T09:15:49.187Z,7.82
2022-09-30T09:16:49.258Z,7.88
2022-09-30T09:18:04.579Z,7.84
2022-09-30T09:18:49.189Z,7.9
2022-09-30T09:19:49.201Z,8.19
2022-09-30T09:20:49.188Z,8.07
2022-09-30T09:21:49.187Z,8.29
2022-09-30T09:22:49.193Z,8.03
2022-09-30T09:23:49.206Z,8.04
2022-09-30T09:24:49.214Z,8.23
2022-09-30T09:25:49.187Z,8.28
2022-09-30T09:26:49.231Z,8.29
2022-09-30T09:27:49.251Z,8.12
2022-09-30T09:28:51.719Z,8.33
2022-09-30T09:29:49.235Z,8.46
2022-09-30T09:30:49.195Z,8.43
2022-09-30T09:31:49.281Z,8.47
2022-09-30T09:32:49.191Z,8.52
2022-09-30T09:33:49.200Z,8.45
2022-09-30T09:34:49.210Z,8.67
2022-09-30T09:35:49.216Z,8.68
2022-09-30T09:36:49.214Z,8.74
2022-09-30T09:37:49.248Z,7.83
2022-09-30T09:38:49.192Z,7.69
2022-09-30T09:39:49.307Z,7.64
2022-09-30T09:40:49.200Z,7.02
2022-09-30T09:41:49.189Z,7.18
2022-09-30T09:42:49.289Z,7.16
2022-09-30T09:43:49.209Z,7.4
2022-09-30T09:44:49.208Z,7.43
2022-09-30T09:45:49.274Z,7.56
2022-09-30T09:46:49.197Z,7.64
2022-09-30T09:47:49.198Z,7.78
2022-09-30T09:48:49.193Z,7.92
2022-09-30T09:49:51.681Z,7.91
2022-09-30T09:50:49.187Z,7.91
2022-09-30T09:51:49.181Z,7.99
2022-09-30T09:52:49.179Z,7.99
2022-09-30T09:53:49.199Z,7.61
2022-09-30T09:54:49.224Z,7.6
2022-09-30T09:55:49.205Z,7.57
2022-09-30T09:56:49.204Z,7.71
2022-09-30T09:57:49.198Z,7.75
2022-09-30T09:59:49.274Z,8.03
2022-09-30T10:00:49.274Z,8.03
2022-09-30T10:01:49.279Z,8.16
2022-09-30T10:02:49.200Z,7.89
2022-09-30T10:03:49.191Z,8.22
2022-09-30T10:04:49.200Z,8.22
2022-09-30T10:05:49.185Z,8.14
2022-09-30T10:06:49.173Z,8.02
2022-09-30T10:07:49.179Z,8.14
2022-09-30T10:08:49.176Z,8.19
2022-09-30T10:09:49.186Z,8.25
2022-09-30T10:10:49.184Z,8.22
2022-09-30T10:11:49.172Z,7.97
2022-09-30T10:12:49.180Z,7.96
2022-09-30T10:13:49.200Z,8.1
2022-09-30T10:14:49.196Z,8.1
2022-09-30T10:15:49.229Z,7.85
2022-09-30T10:16:49.175Z,7.81
2022-09-30T10:17:49.269Z,8.17
2022-09-30T10:18:49.185Z,7.54
2022-09-30T10:19:49.191Z,7.88
2022-09-30T10:20:49.211Z,7.87
2022-09-30T10:21:51.834Z,7.76
2022-09-30T10:22:49.173Z,7.84
2022-09-30T10:23:49.207Z,7.78
2022-09-30T10:24:49.205Z,7.82
2022-09-30T10:25:49.187Z,7.83
2022-09-30T10:26:49.476Z,7.58
2022-09-30T10:27:49.274Z,7.57
2022-09-30T10:28:49.209Z,7.68
2022-09-30T10:29:49.199Z,7.64
2022-09-30T10:30:49.189Z,7.64
2022-09-30T10:31:49.259Z,7.53
2022-09-30T10:32:49.194Z,7.47
2022-09-30T10:33:49.191Z,7.53
2022-09-30T10:34:49.212Z,7.79
2022-09-30T10:35:49.194Z,7.74
2022-09-30T10:36:49.187Z,7.92
2022-09-30T10:37:51.479Z,7.9
2022-09-30T10:38:49.199Z,7.83
2022-09-30T10:39:49.210Z,7.95
2022-09-30T10:40:49.188Z,7.89
2022-09-30T10:41:49.194Z,8.07
2022-09-30T10:42:49.189Z,7.94
2022-09-30T10:43:49.207Z,7.97
2022-09-30T10:44:49.200Z,7.86
2022-09-30T10:46:01.510Z,7.86
2022-09-30T10:46:49.233Z,8.05
2022-09-30T10:47:49.208Z,8.1
2022-09-30T10:48:49.194Z,8.1
2022-09-30T10:49:49.205Z,7.01
2022-09-30T10:50:49.194Z,6.81
2022-09-30T10:51:49.188Z,7.12
2022-09-30T10:52:49.200Z,6.94
2022-09-30T10:53:49.191Z,7.08
2022-09-30T10:54:49.203Z,7.11
2022-09-30T10:55:49.190Z,7.27
2022-09-30T10:56:49.197Z,7.53
2022-09-30T10:57:49.194Z,7.84
2022-09-30T10:58:49.271Z,7.85
2022-09-30T10:59:49.213Z,7.36
2022-09-30T11:00:49.273Z,7.21
2022-09-30T11:01:51.451Z,7.55
2022-09-30T11:02:51.791Z,7.18
2022-09-30T11:03:49.275Z,7.19
2022-09-30T11:04:49.206Z,7.35
2022-09-30T11:05:49.193Z,7.28
2022-09-30T11:06:49.194Z,7.3
2022-09-30T11:07:49.197Z,7.46
2022-09-30T11:08:49.184Z,7.38
2022-09-30T11:09:49.283Z,7.42
2022-09-30T11:10:49.196Z,7.42
2022-09-30T11:11:49.189Z,7.67
2022-09-30T11:12:49.191Z,7.96
2022-09-30T11:13:49.207Z,8.02
2022-09-30T11:14:49.207Z,8
2022-09-30T11:15:49.194Z,8.03
2022-09-30T11:16:49.244Z,7.78
2022-09-30T11:17:49.171Z,7.78
2022-09-30T11:18:49.194Z,7.95
2022-09-30T11:19:49.190Z,7.91
2022-09-30T11:20:49.172Z,7.82
2022-09-30T11:21:49.192Z,7.82
2022-09-30T11:22:49.177Z,7.6
2022-09-30T11:23:49.172Z,7.5
2022-09-30T11:24:49.194Z,7.47
2022-09-30T11:25:49.175Z,7.54
2022-09-30T11:26:49.174Z,7.64
2022-09-30T11:27:49.200Z,7.64
2022-09-30T11:28:49.201Z,7.59
2022-09-30T11:29:49.203Z,7.68
2022-09-30T11:30:49.173Z,7.29
2022-09-30T11:31:49.294Z,7.33
2022-09-30T11:32:49.178Z,7.34
2022-09-30T11:33:49.196Z,7.38
2022-09-30T11:34:49.220Z,7.58
2022-09-30T11:35:49.196Z,7.73
2022-09-30T11:36:49.186Z,7.61
2022-09-30T11:37:49.196Z,7.43
2022-09-30T11:38:49.199Z,7.49
2022-09-30T11:39:49.205Z,7.36
2022-09-30T11:40:49.196Z,7.32
2022-09-30T11:41:49.187Z,7.29
2022-09-30T11:42:49.192Z,7.41
2022-09-30T11:43:49.219Z,7.5
2022-09-30T11:44:49.203Z,7.65
2022-09-30T11:45:49.219Z,7.78
2022-09-30T11:46:49.192Z,7.97
2022-09-30T11:47:49.200Z,8.07
2022-09-30T11:48:49.206Z,7.65
2022-09-30T11:49:49.214Z,7.09
2022-09-30T11:50:49.192Z,7.2
2022-09-30T11:51:49.205Z,7.3
2022-09-30T11:52:49.186Z,7.58
2022-09-30T11:53:49.196Z,7.58
2022-09-30T11:54:49.200Z,7.87
2022-09-30T11:55:49.185Z,7.87
2022-09-30T11:56:49.190Z,7.78
2022-09-30T11:57:49.191Z,7.67
2022-09-30T11:58:49.202Z,7.71
2022-09-30T11:59:49.206Z,7.67
2022-09-30T12:00:49.171Z,7.67
2022-09-30T12:01:49.218Z,7.88
2022-09-30T12:02:49.239Z,7.6
2022-09-30T12:03:49.189Z,7.43
2022-09-30T12:04:49.214Z,7.71
2022-09-30T12:05:49.189Z,7.62
2022-09-30T12:06:49.179Z,7.11
2022-09-30T12:07:49.212Z,7.12
2022-09-30T12:08:49.189Z,7.02
2022-09-30T12:09:49.206Z,7.14
2022-09-30T12:10:49.178Z,7.14
2022-09-30T12:11:49.188Z,7.65
2022-09-30T12:12:49.197Z,7.46
2022-09-30T12:13:49.207Z,7.44
2022-09-30T12:14:49.194Z,7.26
2022-09-30T12:15:49.193Z,7.1
2022-09-30T12:16:49.281Z,7.43
2022-09-30T12:17:49.188Z,7.61
2022-09-30T12:18:49.197Z,7.51
2022-09-30T12:19:49.202Z,7.4
2022-09-30T12:20:49.177Z,7.4
2022-09-30T12:21:49.192Z,7.26
2022-09-30T12:22:49.190Z,7.24
2022-09-30T12:23:49.195Z,7.15
2022-09-30T12:24:49.214Z,7.3
2022-09-30T12:25:49.188Z,7.28
2022-09-30T12:26:49.199Z,7.28
2022-09-30T12:27:49.248Z,7
2022-09-30T12:28:49.189Z,6.9
2022-09-30T12:29:49.192Z,6.95
2022-09-30T12:30:49.179Z,7.05
2022-09-30T12:31:49.209Z,6.89
2022-09-30T12:32:49.180Z,6.73
2022-09-30T12:33:49.171Z,6.8
2022-09-30T12:34:49.189Z,6.87
2022-09-30T12:35:49.187Z,6.94
2022-09-30T12:36:49.173Z,6.98
2022-09-30T12:37:49.171Z,7.07
2022-09-30T12:38:49.184Z,7.14
2022-09-30T12:39:49.185Z,6.96
2022-09-30T12:40:52.378Z,6.91
2022-09-30T12:41:49.171Z,7.34
2022-09-30T12:42:49.188Z,7.67
2022-09-30T12:43:49.200Z,8.07
2022-09-30T12:44:49.195Z,7.97
2022-09-30T12:45:49.251Z,7.92
2022-09-30T12:46:49.191Z,7.71
2022-09-30T12:47:49.188Z,7.68
2022-09-30T12:48:49.200Z,7.81
2022-09-30T12:49:49.213Z,7.97
2022-09-30T12:50:49.194Z,7.97
2022-09-30T12:51:49.195Z,7.93
2022-09-30T12:52:49.186Z,7.93
2022-09-30T12:53:49.188Z,7.75
2022-09-30T12:54:49.213Z,7.68
2022-09-30T12:55:49.186Z,7.48
2022-09-30T12:56:49.197Z,7.44
2022-09-30T12:57:49.192Z,7.42
2022-09-30T12:58:49.202Z,7.15
2022-09-30T12:59:49.201Z,7.17
2022-09-30T13:00:49.216Z,7.11
2022-09-30T13:01:49.253Z,7.19
2022-09-30T13:02:49.212Z,7.42
2022-09-30T13:03:49.186Z,7.34
2022-09-30T13:04:49.204Z,7.56
2022-09-30T13:05:49.204Z,7.73
2022-09-30T13:06:49.187Z,8.08
2022-09-30T13:07:49.188Z,8.19
2022-09-30T13:08:49.196Z,8.04
2022-09-30T13:09:49.192Z,7.47
2022-09-30T13:10:49.187Z,7.54
2022-09-30T13:11:49.184Z,7.77
2022-09-30T13:12:49.195Z,7.83
2022-09-30T13:13:49.271Z,7.82
2022-09-30T13:14:49.200Z,7.47
2022-09-30T13:15:49.191Z,7.5
2022-09-30T13:16:49.267Z,7.55
2022-09-30T13:17:49.191Z,7.6
2022-09-30T13:18:49.183Z,7.7
2022-09-30T13:19:49.208Z,7.72
2022-09-30T13:20:49.186Z,7.75
2022-09-30T13:21:52.122Z,7.92
2022-09-30T13:22:49.192Z,7.94
2022-09-30T13:23:49.188Z,8.32